createdAt,value
2018-09-28T00:02:35.561Z,77.74
2018-09-28T00:05:02.225Z,77.53
2018-09-28T00:07:28.821Z,78.91
2018-09-28T00:09:56.299Z,80.17
2018-09-28T00:12:23.283Z,81.35
2018-09-28T00:14:49.942Z,81.62
2018-09-28T00:17:16.630Z,82.28
2018-09-28T00:19:43.101Z,82.17
2018-09-28T00:22:09.953Z,82.53
2018-09-28T00:24:36.455Z,80.01
2018-09-28T00:27:02.968Z,78.11
2018-09-28T00:31:25.325Z,76.79
2018-09-28T03:07:15.887Z,77.98
2018-09-28T03:09:42.398Z,78.19
2018-09-28T03:36:40.931Z,84.83
2018-09-28T03:39:07.478Z,84.20
2018-09-28T03:41:34.255Z,82.92
2018-09-28T03:44:00.898Z,82.69
2018-09-28T03:46:28.017Z,82.82
2018-09-28T03:48:54.503Z,82.71
2018-09-28T03:51:22.382Z,83.84
2018-09-28T03:53:49.091Z,83.24
2018-09-28T03:56:15.573Z,84.13
2018-09-28T03:58:42.073Z,83.84
2018-09-28T04:01:09.698Z,86.29
2018-09-28T04:28:11.288Z,85.59
2018-09-28T04:30:38.665Z,84.30
2018-09-28T04:33:05.792Z,82.12
2018-09-28T04:35:32.431Z,82.37
2018-09-28T04:37:58.913Z,81.78
2018-09-28T04:40:25.881Z,83.06
2018-09-28T04:42:53.297Z,82.29
2018-09-28T05:05:53.523Z,79.78
2018-09-28T05:08:20.297Z,82.77
2018-09-28T05:10:48.221Z,83.69
2018-09-28T05:13:14.712Z,84.40
2018-09-28T05:15:41.265Z,84.26
2018-09-28T05:18:08.142Z,84.31
2018-09-28T05:20:35.198Z,85.23
2018-09-28T05:23:01.759Z,86.18
2018-09-28T05:25:29.030Z,86.00
2018-09-28T05:27:56.260Z,86.80
2018-09-28T05:47:44.458Z,84.87
2018-09-28T07:10:29.853Z,89.77
2018-09-28T07:12:56.453Z,89.31
2018-09-28T07:15:23.337Z,89.51
2018-09-28T07:17:49.991Z,90.38
2018-09-28T07:20:16.502Z,90.42
2018-09-28T07:22:43.484Z,91.61
2018-09-28T07:59:17.613Z,94.96
2018-09-28T08:01:44.526Z,95.30
2018-09-28T08:04:11.166Z,95.43
2018-09-28T08:33:09.504Z,97.46
2018-09-28T08:35:36.140Z,98.23
2018-09-28T08:38:03.751Z,98.15
2018-09-28T08:55:13.232Z,98.35
2018-09-28T08:57:41.280Z,99.04
2018-09-28T09:00:09.159Z,98.89
2018-09-28T09:05:46.123Z,98.89
2018-09-28T09:08:13.457Z,98.99
2018-09-28T09:10:40.798Z,98.83
2018-09-28T09:13:08.973Z,98.40
2018-09-28T09:15:36.212Z,97.88
2018-09-28T09:37:30.103Z,94.39
2018-09-28T09:48:10.911Z,92.47
2018-09-28T10:09:12.604Z,88.82
2018-09-28T10:11:39.530Z,88.52
2018-09-28T10:14:06.205Z,88.06
2018-09-28T10:16:32.801Z,87.07
2018-09-28T10:19:00.865Z,87.46
2018-09-28T10:21:27.392Z,86.29
2018-09-28T10:23:54.992Z,85.35
2018-09-28T10:26:21.811Z,86.01
2018-09-28T10:28:48.561Z,84.19
2018-09-28T10:31:15.159Z,82.88
2018-09-28T10:33:43.007Z,83.16
2018-09-28T10:36:10.316Z,83.02
2018-09-28T10:38:38.038Z,81.52
2018-09-28T10:41:06.186Z,80.45
2018-09-28T10:43:32.947Z,82.89
2018-09-28T10:45:59.474Z,83.07
2018-09-28T11:20:36.500Z,87.24
2018-09-28T13:33:44.429Z,61.93
2018-09-28T13:36:12.184Z,60.51
2018-09-28T14:56:52.776Z,40.87
2018-09-28T14:59:19.371Z,40.97
2018-09-28T15:16:57.379Z,42.82
2018-09-28T15:19:26.072Z,47.85
2018-09-28T18:51:36.190Z,71.32
2018-09-28T18:54:02.879Z,71.93
2018-09-28T18:56:33.606Z,72.68
2018-09-28T18:59:02.263Z,72.76
2018-09-28T19:01:28.737Z,73.46
2018-09-28T19:03:56.552Z,73.63
2018-09-28T19:15:18.694Z,75.66
2018-09-28T19:17:50.792Z,76.04
2018-09-28T19:20:19.223Z,76.82
2018-09-28T19:22:46.681Z,77.69
2018-09-28T19:25:13.279Z,77.28
2018-09-28T19:27:40.973Z,78.08
2018-09-28T19:30:08.989Z,78.12
2018-09-28T19:32:35.517Z,78.72
2018-09-28T19:35:02.527Z,78.31
2018-09-28T19:37:29.004Z,78.69
2018-09-28T19:39:55.486Z,78.16
2018-09-28T19:42:22.408Z,78.27
2018-09-28T19:44:49.852Z,78.54
2018-09-28T19:47:16.357Z,78.52
2018-09-28T19:49:43.908Z,78.76
2018-09-28T19:52:11.731Z,79.46
2018-09-28T19:54:38.449Z,79.47
2018-09-28T19:57:05.348Z,79.75
2018-09-28T19:59:31.968Z,80.08
2018-09-28T20:01:59.069Z,79.95
2018-09-28T20:29:58.684Z,81.20
2018-09-28T20:32:25.277Z,81.59
2018-09-28T20:34:52.158Z,81.22
2018-09-28T20:37:19.897Z,81.59
2018-09-28T20:39:46.659Z,81.87
2018-09-28T20:42:15.549Z,81.86
2018-09-28T20:44:43.637Z,81.88
2018-09-28T20:47:10.258Z,81.82
2018-09-28T20:49:37.646Z,82.03
2018-09-28T20:52:04.410Z,81.66
2018-09-28T21:00:10.668Z,81.24
2018-09-28T21:05:04.212Z,81.75
2018-09-28T21:07:30.763Z,82.27
2018-09-28T21:09:59.302Z,81.94
2018-09-28T21:12:27.279Z,82.68
2018-09-28T21:14:56.295Z,83.08
2018-09-28T21:17:22.840Z,83.32
2018-09-28T21:19:51.306Z,83.73
2018-09-28T21:22:18.617Z,83.81
2018-09-28T21:24:45.148Z,83.89
2018-09-28T21:27:12.094Z,83.92
2018-09-28T21:29:38.566Z,84.67
2018-09-28T21:32:05.122Z,84.65
2018-09-28T21:34:31.997Z,84.38
2018-09-28T21:36:58.502Z,84.74
2018-09-28T21:39:26.675Z,84.55
2018-09-28T21:41:55.041Z,85.01
2018-09-28T21:44:23.390Z,85.35
2018-09-28T21:46:50.608Z,85.64
2018-09-28T21:49:18.428Z,85.69
2018-09-28T21:51:44.929Z,85.98
2018-09-28T22:01:18.578Z,86.68
2018-09-28T22:03:45.102Z,87.36
2018-09-28T22:06:15.242Z,88.19
2018-09-28T22:08:41.899Z,88.02
2018-09-28T22:11:08.526Z,88.32
2018-09-28T22:13:35.568Z,88.01
2018-09-28T22:16:02.158Z,88.16
2018-09-28T22:30:14.358Z,87.84
2018-09-28T22:32:40.836Z,88.41
2018-09-28T22:35:08.577Z,88.68
2018-09-28T22:37:35.042Z,89.23
2018-09-28T22:40:01.504Z,89.21
2018-09-28T22:42:28.293Z,89.17
2018-09-28T22:44:56.238Z,89.70
2018-09-28T22:47:22.771Z,89.87
2018-09-28T22:49:49.240Z,90.22
2018-09-28T22:52:16.207Z,89.80
2018-09-28T22:54:42.702Z,89.94
2018-09-28T22:57:09.201Z,89.93
2018-09-28T22:59:36.045Z,90.03
2018-09-28T23:02:02.530Z,89.74
2018-09-28T23:04:29.000Z,89.92
2018-09-28T23:06:55.976Z,89.77
2018-09-28T23:09:22.494Z,90.14
2018-09-28T23:11:49.040Z,89.86
2018-09-28T23:14:19.440Z,90.05
2018-09-28T23:16:45.937Z,90.14
2018-09-28T23:19:12.459Z,90.67
2018-09-28T23:21:39.016Z,89.86
2018-09-28T23:24:05.906Z,90.05
2018-09-28T23:26:32.436Z,89.86
2018-09-28T23:29:00.328Z,90.30
2018-09-28T23:31:27.273Z,90.32
2018-09-28T23:33:53.768Z,90.85
2018-09-28T23:36:20.279Z,90.75
2018-09-28T23:38:47.435Z,90.89
2018-09-28T23:41:14.422Z,91.04
2018-09-28T23:43:40.925Z,91.18
2018-09-28T23:46:07.430Z,90.94
2018-09-28T23:48:34.329Z,90.79
2018-09-28T23:51:00.813Z,90.86
2018-09-28T23:53:27.309Z,91.00
2018-09-28T23:55:54.239Z,91.15
2018-09-28T23:58:21.541Z,91.34
